Aérodrome :
LOGIN :

S'inscrire | Disclaimer

   EN    FR    IT 

 










Légende :    VFR   VFR Marginal   IFR   IFR Intensif   IFR Très Intensif
Visi : 
Plafond : 
>= 8 km
>= 3000ft
5 à 8 km
1000 à 3000 ft
1500m à 5 km
500 à 1000 ft
800 à 1500m
200 à 500 ft
< 800m
< 200 ft
Symboles :   Orages  Brouillard  Fortes neiges  Fortes précipitations  Vent > 20 kt
SIGMETs :   Divers  Orages  Givrage  Turbulence  Onde Orograph.  Cendres Volcan.






- Altitude de l'aérodrome : 485 ft
- Code IATA : QSA


LELL - Sabadell

DERNIER METAR :
  • 190130Z AUTO VRB02KT CAVOK 19/18 Q1015

METARs EXPIRÉS :
  • 190100Z AUTO VRB01KT CAVOK 19/18 Q1016
  • 182330Z AUTO VRB01KT 9999 SCT006 BKN013 20/18 Q1015
  • 182300Z AUTO 08003KT 030V120 9999 SCT006 20/19 Q1015

TAF AMD TAF LELL
Valide du 18 à 15h jusqu'au 19 à 15h UTC


181528Z 1815/1915 VRB04KT 9999 BKN040 TX26/1912Z TN14/1905Z
TEMPO 1815/1821 3000 TSRA FEW020CB BKN025
PROB40
TEMPO 1815/1819 VRB15G25KT 1500 +TSRAGR SCT015CB BKN020
PROB30
TEMPO 1821/1904 3000 BR BKN010
BECMG 1903/1905 27007KT



MET'MAP, la Météo Aéronautique d'un coup d'oeil ! - Copyright ORBIFLY Décembre 2007 - Disclaimer

ORBIFLY MET'MAP TEAM :

Programmation & Développement : Alexandra Zaïnal
Sur une idée originale de : Baudouin d'Aumeries
Assistance à la programmation : Marc-Olivier Méhu
Soutien technique & logistique : Manuel Goepfert

Contact : metmap@orbifly.com




SOURCES & CREDITS :

   NOAA